FJI911 NFFN-YSSY
Flight info
| Callsign | FJI911 |
|---|---|
| Flight time | 4h 12m |
| Altitude | 40000 |
| Route | ECHO MI DCT VIBEX G224 NF B450 LHI H258 RIKNI N774 MARLN |
| Aircraft | A359/H-SDE2E3GHIJ3J4J5LM1ORWXY/LB1D1 |
Departure
| Time | 2026-04-21 10:18 |
|---|---|
| Airport | Nadi International Airport (NFFN) |
Arrival
| Time | 2026-04-21 14:30 |
|---|---|
| Airport | Sydney Kingsford Smith International Airport (YSSY) |
| Time | Latitude | Longitude | Altitude | Speed | Heading |
|---|---|---|---|---|---|
| 2026-04-21 09:23 | -17.75185 | 177.45006 | 53 ft | 0 kts | 104° |
| 2026-04-21 10:07 | -17.75181 | 177.44989 | 48 ft | 3 kts | 104° |
| 2026-04-21 10:07 | -17.75178 | 177.44965 | 49 ft | 4 kts | 77° |
| 2026-04-21 10:07 | -17.75190 | 177.44943 | 46 ft | 4 kts | 31° |
| 2026-04-21 10:07 | -17.75215 | 177.44933 | 48 ft | 4 kts | 12° |
| 2026-04-21 10:08 | -17.75234 | 177.44928 | 48 ft | 0 kts | 12° |
| 2026-04-21 10:12 | -17.75222 | 177.44931 | 48 ft | 5 kts | 12° |
| 2026-04-21 10:12 | -17.75178 | 177.44942 | 45 ft | 8 kts | 12° |
| 2026-04-21 10:12 | -17.75117 | 177.44956 | 50 ft | 10 kts | 12° |
| 2026-04-21 10:13 | -17.75057 | 177.44942 | 51 ft | 8 kts | 315° |
| 2026-04-21 10:13 | -17.75038 | 177.44894 | 49 ft | 2 kts | 285° |
| 2026-04-21 10:15 | -17.75036 | 177.44887 | 49 ft | 4 kts | 286° |
| 2026-04-21 10:15 | -17.75025 | 177.44843 | 48 ft | 8 kts | 284° |
| 2026-04-21 10:15 | -17.75013 | 177.44779 | 48 ft | 10 kts | 280° |
| 2026-04-21 10:16 | -17.75033 | 177.44712 | 49 ft | 11 kts | 226° |
| 2026-04-21 10:16 | -17.75043 | 177.44703 | 47 ft | 0 kts | 219° |
| 2026-04-21 10:17 | -17.75065 | 177.44685 | 53 ft | 21 kts | 218° |
| 2026-04-21 10:17 | -17.75385 | 177.44431 | 47 ft | 92 kts | 217° |
| 2026-04-21 10:18 | -17.76064 | 177.43882 | 49 ft | 152 kts | 218° |
| 2026-04-21 10:18 | -17.76986 | 177.43160 | 455 ft | 169 kts | 215° |
| 2026-04-21 10:18 | -17.77890 | 177.42452 | 1298 ft | 160 kts | 216° |
| 2026-04-21 10:18 | -17.78788 | 177.41734 | 1832 ft | 166 kts | 217° |
| 2026-04-21 10:19 | -17.79741 | 177.40943 | 2063 ft | 182 kts | 218° |
| 2026-04-21 10:19 | -17.80782 | 177.40075 | 2278 ft | 200 kts | 218° |
| 2026-04-21 10:19 | -17.81928 | 177.39129 | 2494 ft | 220 kts | 218° |
| 2026-04-21 10:19 | -17.83176 | 177.38106 | 2741 ft | 239 kts | 218° |
| 2026-04-21 10:20 | -17.84536 | 177.36995 | 3057 ft | 255 kts | 218° |
| 2026-04-21 10:20 | -17.85962 | 177.35832 | 3533 ft | 262 kts | 218° |
| 2026-04-21 10:20 | -17.87418 | 177.34644 | 4109 ft | 266 kts | 218° |
| 2026-04-21 10:20 | -17.88889 | 177.33445 | 4705 ft | 269 kts | 219° |
| 2026-04-21 10:21 | -17.90330 | 177.32212 | 5262 ft | 272 kts | 223° |
| 2026-04-21 10:21 | -17.91730 | 177.30863 | 5842 ft | 274 kts | 225° |
| 2026-04-21 10:21 | -17.93100 | 177.29449 | 6403 ft | 277 kts | 227° |
| 2026-04-21 10:21 | -17.94465 | 177.28000 | 6940 ft | 279 kts | 227° |
| 2026-04-21 10:22 | -17.95835 | 177.26537 | 7460 ft | 282 kts | 227° |
| 2026-04-21 10:22 | -17.97221 | 177.25068 | 7995 ft | 285 kts | 227° |
| 2026-04-21 10:22 | -17.98629 | 177.23587 | 8535 ft | 287 kts | 227° |
| 2026-04-21 10:22 | -18.00033 | 177.22121 | 9074 ft | 290 kts | 227° |
| 2026-04-21 10:23 | -18.01472 | 177.20624 | 9617 ft | 292 kts | 227° |
| 2026-04-21 10:23 | -18.02933 | 177.19107 | 10118 ft | 297 kts | 227° |
| 2026-04-21 10:23 | -18.04431 | 177.17550 | 10366 ft | 309 kts | 227° |
| 2026-04-21 10:23 | -18.05995 | 177.15924 | 10581 ft | 321 kts | 227° |
| 2026-04-21 10:24 | -18.07615 | 177.14239 | 10815 ft | 333 kts | 227° |
| 2026-04-21 10:24 | -18.09271 | 177.12517 | 11024 ft | 344 kts | 227° |
| 2026-04-21 10:24 | -18.11000 | 177.10719 | 11229 ft | 355 kts | 227° |
| 2026-04-21 10:24 | -18.12777 | 177.08871 | 11425 ft | 364 kts | 227° |
| 2026-04-21 10:25 | -18.14602 | 177.06974 | 11682 ft | 371 kts | 227° |
| 2026-04-21 10:25 | -18.16455 | 177.05048 | 12024 ft | 375 kts | 227° |
| 2026-04-21 10:25 | -18.18323 | 177.03107 | 12390 ft | 378 kts | 227° |
| 2026-04-21 10:25 | -18.20204 | 177.01150 | 12765 ft | 381 kts | 227° |
| 2026-04-21 10:26 | -18.22071 | 176.99207 | 13121 ft | 383 kts | 227° |
| 2026-04-21 10:26 | -18.24016 | 176.97267 | 13481 ft | 387 kts | 223° |
| 2026-04-21 10:26 | -18.26142 | 176.95504 | 13831 ft | 390 kts | 220° |
| 2026-04-21 10:26 | -18.28348 | 176.93804 | 14139 ft | 393 kts | 219° |
| 2026-04-21 10:27 | -18.30598 | 176.92134 | 14450 ft | 396 kts | 218° |
| 2026-04-21 10:27 | -18.32873 | 176.90478 | 14761 ft | 398 kts | 218° |
| 2026-04-21 10:27 | -18.35159 | 176.88824 | 15070 ft | 400 kts | 218° |
| 2026-04-21 10:27 | -18.37432 | 176.87178 | 15383 ft | 403 kts | 218° |
| 2026-04-21 10:28 | -18.39743 | 176.85499 | 15698 ft | 405 kts | 218° |
| 2026-04-21 10:28 | -18.42066 | 176.83807 | 16038 ft | 407 kts | 218° |
| 2026-04-21 10:28 | -18.44406 | 176.82097 | 16345 ft | 409 kts | 218° |
| 2026-04-21 10:28 | -18.46749 | 176.80381 | 16655 ft | 412 kts | 218° |
| 2026-04-21 10:29 | -18.49112 | 176.78650 | 16960 ft | 414 kts | 218° |
| 2026-04-21 10:29 | -18.51488 | 176.76908 | 17273 ft | 416 kts | 218° |
| 2026-04-21 10:29 | -18.53870 | 176.75161 | 17576 ft | 419 kts | 218° |
| 2026-04-21 10:29 | -18.56273 | 176.73399 | 17877 ft | 421 kts | 218° |
| 2026-04-21 10:30 | -18.58683 | 176.71631 | 18198 ft | 423 kts | 218° |
| 2026-04-21 10:30 | -18.61080 | 176.69872 | 18451 ft | 426 kts | 218° |
| 2026-04-21 10:30 | -18.63520 | 176.68081 | 18711 ft | 428 kts | 219° |
| 2026-04-21 10:30 | -18.65970 | 176.66282 | 18973 ft | 430 kts | 219° |
| 2026-04-21 10:31 | -18.68432 | 176.64474 | 19232 ft | 431 kts | 219° |
| 2026-04-21 10:31 | -18.70906 | 176.62656 | 19491 ft | 433 kts | 219° |
| 2026-04-21 10:31 | -18.73386 | 176.60833 | 19762 ft | 435 kts | 219° |
| 2026-04-21 10:31 | -18.75850 | 176.59022 | 20007 ft | 437 kts | 219° |
| 2026-04-21 10:32 | -18.78352 | 176.57181 | 20272 ft | 439 kts | 219° |
| 2026-04-21 10:32 | -18.80867 | 176.55330 | 20525 ft | 441 kts | 219° |
| 2026-04-21 10:32 | -18.83396 | 176.53468 | 20772 ft | 443 kts | 219° |
| 2026-04-21 10:32 | -18.85932 | 176.51601 | 21019 ft | 445 kts | 219° |
| 2026-04-21 10:33 | -18.88444 | 176.49750 | 21260 ft | 446 kts | 219° |
| 2026-04-21 10:33 | -18.90997 | 176.47868 | 21502 ft | 448 kts | 219° |
| 2026-04-21 10:33 | -18.93568 | 176.45973 | 21736 ft | 450 kts | 219° |
| 2026-04-21 10:33 | -18.96142 | 176.44075 | 21969 ft | 452 kts | 219° |
| 2026-04-21 10:34 | -18.98726 | 176.42169 | 22203 ft | 454 kts | 219° |
| 2026-04-21 10:34 | -19.01320 | 176.40254 | 22438 ft | 455 kts | 219° |
| 2026-04-21 10:34 | -19.03930 | 176.38331 | 22653 ft | 457 kts | 219° |
| 2026-04-21 10:34 | -19.06543 | 176.36400 | 22874 ft | 459 kts | 219° |
| 2026-04-21 10:35 | -19.09133 | 176.34476 | 23111 ft | 461 kts | 220° |
| 2026-04-21 10:35 | -19.11755 | 176.32523 | 23329 ft | 462 kts | 220° |
| 2026-04-21 10:35 | -19.14394 | 176.30558 | 23543 ft | 464 kts | 220° |
| 2026-04-21 10:35 | -19.17034 | 176.28592 | 23725 ft | 466 kts | 220° |
| 2026-04-21 10:36 | -19.19695 | 176.26613 | 23915 ft | 467 kts | 220° |
| 2026-04-21 10:36 | -19.22353 | 176.24635 | 24110 ft | 468 kts | 220° |
| 2026-04-21 10:36 | -19.24129 | 176.23314 | 24238 ft | 469 kts | 220° |
| 2026-04-21 10:36 | -19.27669 | 176.20679 | 24487 ft | 470 kts | 220° |
| 2026-04-21 10:37 | -19.30347 | 176.18685 | 24679 ft | 471 kts | 220° |
| 2026-04-21 10:37 | -19.32131 | 176.17358 | 24810 ft | 472 kts | 220° |
| 2026-04-21 10:37 | -19.34832 | 176.15346 | 24977 ft | 473 kts | 220° |
| 2026-04-21 10:37 | -19.37520 | 176.13342 | 25173 ft | 474 kts | 220° |
| 2026-04-21 10:38 | -19.40227 | 176.11323 | 25352 ft | 475 kts | 220° |
| 2026-04-21 10:38 | -19.42933 | 176.09303 | 25556 ft | 476 kts | 220° |
| 2026-04-21 10:38 | -19.45649 | 176.07276 | 25767 ft | 477 kts | 220° |
| 2026-04-21 10:38 | -19.48342 | 176.05265 | 25936 ft | 478 kts | 220° |
| 2026-04-21 10:39 | -19.51068 | 176.03228 | 26125 ft | 480 kts | 220° |
| 2026-04-21 10:39 | -19.53804 | 176.01183 | 26299 ft | 481 kts | 220° |
| 2026-04-21 10:39 | -19.56544 | 175.99135 | 26489 ft | 482 kts | 220° |
| 2026-04-21 10:39 | -19.59293 | 175.97078 | 26682 ft | 484 kts | 220° |
| 2026-04-21 10:40 | -19.62011 | 175.95044 | 26876 ft | 485 kts | 220° |
| 2026-04-21 10:40 | -19.64776 | 175.92974 | 27062 ft | 486 kts | 220° |
| 2026-04-21 10:40 | -19.67549 | 175.90897 | 27262 ft | 488 kts | 220° |
| 2026-04-21 10:40 | -19.70327 | 175.88816 | 27450 ft | 489 kts | 220° |
| 2026-04-21 10:41 | -19.73110 | 175.86730 | 27640 ft | 490 kts | 220° |
| 2026-04-21 10:41 | -19.75905 | 175.84636 | 27850 ft | 492 kts | 220° |
| 2026-04-21 10:41 | -19.78716 | 175.82537 | 28032 ft | 493 kts | 220° |
| 2026-04-21 10:41 | -19.81529 | 175.80428 | 28244 ft | 495 kts | 220° |
| 2026-04-21 10:42 | -19.84311 | 175.78335 | 28438 ft | 496 kts | 220° |
| 2026-04-21 10:42 | -19.87136 | 175.76208 | 28633 ft | 498 kts | 220° |
| 2026-04-21 10:42 | -19.89962 | 175.74080 | 28818 ft | 499 kts | 220° |
| 2026-04-21 10:42 | -19.92804 | 175.71941 | 29006 ft | 501 kts | 220° |
| 2026-04-21 10:43 | -19.95660 | 175.69791 | 29192 ft | 502 kts | 220° |
| 2026-04-21 10:43 | -19.98518 | 175.67639 | 29381 ft | 504 kts | 220° |
| 2026-04-21 10:43 | -20.01384 | 175.65482 | 29578 ft | 505 kts | 220° |
| 2026-04-21 10:43 | -20.04214 | 175.63350 | 29767 ft | 506 kts | 220° |
| 2026-04-21 10:44 | -20.07100 | 175.61175 | 29959 ft | 508 kts | 220° |
| 2026-04-21 10:44 | -20.09993 | 175.58994 | 30155 ft | 509 kts | 221° |
| 2026-04-21 10:44 | -20.12890 | 175.56809 | 30351 ft | 510 kts | 221° |
| 2026-04-21 10:44 | -20.15788 | 175.54622 | 30532 ft | 511 kts | 221° |
| 2026-04-21 10:45 | -20.18692 | 175.52429 | 30732 ft | 511 kts | 221° |
| 2026-04-21 10:45 | -20.21603 | 175.50231 | 30913 ft | 512 kts | 221° |
| 2026-04-21 10:45 | -20.24474 | 175.48061 | 31104 ft | 513 kts | 221° |
| 2026-04-21 10:45 | -20.27386 | 175.45860 | 31296 ft | 513 kts | 221° |
| 2026-04-21 10:46 | -20.30314 | 175.43645 | 31483 ft | 514 kts | 221° |
| 2026-04-21 10:46 | -20.33230 | 175.41438 | 31727 ft | 513 kts | 221° |
| 2026-04-21 10:46 | -20.36138 | 175.39237 | 31998 ft | 512 kts | 221° |
| 2026-04-21 10:46 | -20.39050 | 175.37032 | 32149 ft | 513 kts | 221° |
| 2026-04-21 10:47 | -20.41967 | 175.34820 | 32299 ft | 515 kts | 221° |
| 2026-04-21 10:47 | -20.44858 | 175.32627 | 32434 ft | 516 kts | 221° |
| 2026-04-21 10:47 | -20.47780 | 175.30410 | 32655 ft | 515 kts | 221° |
| 2026-04-21 10:47 | -20.50699 | 175.28195 | 32886 ft | 514 kts | 221° |
| 2026-04-21 10:48 | -20.53616 | 175.25981 | 33136 ft | 514 kts | 221° |
| 2026-04-21 10:48 | -20.56531 | 175.23767 | 33367 ft | 513 kts | 221° |
| 2026-04-21 10:48 | -20.59431 | 175.21564 | 33613 ft | 512 kts | 221° |
| 2026-04-21 10:48 | -20.62333 | 175.19357 | 33875 ft | 512 kts | 221° |
| 2026-04-21 10:49 | -20.65235 | 175.17149 | 34123 ft | 511 kts | 221° |
| 2026-04-21 10:49 | -20.68089 | 175.14977 | 34380 ft | 509 kts | 221° |
| 2026-04-21 10:49 | -20.70966 | 175.12787 | 34676 ft | 507 kts | 221° |
| 2026-04-21 10:49 | -20.73836 | 175.10601 | 35003 ft | 505 kts | 221° |
| 2026-04-21 10:50 | -20.76706 | 175.08413 | 35187 ft | 506 kts | 222° |
| 2026-04-21 10:50 | -20.79573 | 175.06224 | 35386 ft | 506 kts | 222° |
| 2026-04-21 10:50 | -20.82429 | 175.04045 | 35730 ft | 503 kts | 223° |
| 2026-04-21 10:50 | -20.85280 | 175.01870 | 36069 ft | 500 kts | 223° |
| 2026-04-21 10:51 | -20.88077 | 174.99736 | 36397 ft | 498 kts | 223° |
| 2026-04-21 10:51 | -20.90896 | 174.97584 | 36736 ft | 495 kts | 223° |
| 2026-04-21 10:51 | -20.93689 | 174.95450 | 37067 ft | 492 kts | 223° |
| 2026-04-21 10:51 | -20.96477 | 174.93318 | 37415 ft | 490 kts | 223° |
| 2026-04-21 10:52 | -20.99244 | 174.91202 | 37742 ft | 487 kts | 223° |
| 2026-04-21 10:52 | -21.01992 | 174.89098 | 38077 ft | 485 kts | 223° |
| 2026-04-21 10:52 | -21.04704 | 174.87020 | 38399 ft | 482 kts | 223° |
| 2026-04-21 10:52 | -21.07425 | 174.84936 | 38730 ft | 480 kts | 224° |
| 2026-04-21 10:53 | -21.10132 | 174.82861 | 38987 ft | 477 kts | 224° |
| 2026-04-21 10:53 | -21.12833 | 174.80788 | 39167 ft | 477 kts | 224° |
| 2026-04-21 10:53 | -21.15532 | 174.78716 | 39337 ft | 477 kts | 224° |
| 2026-04-21 10:53 | -21.18221 | 174.76649 | 39497 ft | 477 kts | 224° |
| 2026-04-21 10:54 | -21.20918 | 174.74576 | 39674 ft | 476 kts | 224° |
| 2026-04-21 10:54 | -21.23614 | 174.72505 | 39830 ft | 476 kts | 224° |
| 2026-04-21 10:54 | -21.26265 | 174.70467 | 39966 ft | 476 kts | 224° |
| 2026-04-21 10:55 | -21.31649 | 174.66325 | 40009 ft | 475 kts | 224° |
| 2026-04-21 10:55 | -21.37011 | 174.62198 | 39994 ft | 474 kts | 224° |
| 2026-04-21 10:56 | -21.42371 | 174.58067 | 39996 ft | 474 kts | 224° |
| 2026-04-21 10:56 | -21.47704 | 174.53952 | 39994 ft | 474 kts | 224° |
| 2026-04-21 10:57 | -21.53057 | 174.49819 | 39992 ft | 474 kts | 224° |
| 2026-04-21 10:57 | -21.58417 | 174.45678 | 39997 ft | 474 kts | 224° |
| 2026-04-21 10:58 | -21.63736 | 174.41564 | 39995 ft | 474 kts | 224° |
| 2026-04-21 10:58 | -21.69091 | 174.37418 | 39989 ft | 474 kts | 224° |
| 2026-04-21 10:59 | -21.74440 | 174.33276 | 39993 ft | 471 kts | 225° |
| 2026-04-21 10:59 | -21.79711 | 174.29190 | 39993 ft | 469 kts | 225° |
| 2026-04-21 11:00 | -21.84998 | 174.25084 | 39994 ft | 468 kts | 225° |
| 2026-04-21 11:00 | -21.90281 | 174.20976 | 39996 ft | 467 kts | 225° |
| 2026-04-21 11:01 | -21.95563 | 174.16866 | 39995 ft | 467 kts | 225° |
| 2026-04-21 11:01 | -22.00806 | 174.12785 | 39996 ft | 467 kts | 225° |
| 2026-04-21 11:02 | -22.08708 | 174.06629 | 39995 ft | 466 kts | 226° |
| 2026-04-21 11:02 | -22.13969 | 174.02529 | 40001 ft | 466 kts | 226° |
| 2026-04-21 11:03 | -22.19222 | 173.98424 | 40001 ft | 466 kts | 226° |
| 2026-04-21 11:03 | -22.24477 | 173.94314 | 40001 ft | 466 kts | 226° |
| 2026-04-21 11:04 | -22.29723 | 173.90210 | 40010 ft | 466 kts | 226° |
| 2026-04-21 11:04 | -22.34952 | 173.86117 | 40029 ft | 466 kts | 226° |
| 2026-04-21 11:05 | -22.40199 | 173.82006 | 40003 ft | 465 kts | 226° |
| 2026-04-21 11:05 | -22.45438 | 173.77895 | 40008 ft | 465 kts | 226° |
| 2026-04-21 11:06 | -22.50679 | 173.73779 | 40006 ft | 465 kts | 226° |
| 2026-04-21 11:06 | -22.55889 | 173.69684 | 39999 ft | 465 kts | 226° |
| 2026-04-21 11:07 | -22.61140 | 173.65553 | 39996 ft | 465 kts | 226° |
| 2026-04-21 11:07 | -22.66375 | 173.61431 | 40031 ft | 465 kts | 227° |
| 2026-04-21 11:08 | -22.71586 | 173.57324 | 40001 ft | 465 kts | 227° |
| 2026-04-21 11:08 | -22.76816 | 173.53198 | 40004 ft | 465 kts | 227° |
| 2026-04-21 11:09 | -22.82028 | 173.49081 | 39999 ft | 466 kts | 227° |
| 2026-04-21 11:09 | -22.87264 | 173.44941 | 39999 ft | 466 kts | 227° |
| 2026-04-21 11:10 | -22.92507 | 173.40793 | 39999 ft | 466 kts | 227° |
| 2026-04-21 11:10 | -22.97754 | 173.36637 | 40025 ft | 466 kts | 227° |
| 2026-04-21 11:11 | -23.02978 | 173.32493 | 40007 ft | 468 kts | 227° |
| 2026-04-21 11:11 | -23.08248 | 173.28310 | 39990 ft | 469 kts | 227° |
| 2026-04-21 11:12 | -23.13528 | 173.24117 | 39995 ft | 469 kts | 227° |
| 2026-04-21 11:12 | -23.18768 | 173.19952 | 39996 ft | 469 kts | 227° |
| 2026-04-21 11:13 | -23.24036 | 173.15759 | 39994 ft | 469 kts | 227° |
| 2026-04-21 11:13 | -23.29291 | 173.11567 | 40008 ft | 473 kts | 228° |
| 2026-04-21 11:14 | -23.34612 | 173.07319 | 40000 ft | 475 kts | 228° |
| 2026-04-21 11:14 | -23.39965 | 173.03048 | 39998 ft | 476 kts | 228° |
| 2026-04-21 11:15 | -23.45315 | 172.98777 | 39998 ft | 476 kts | 228° |
| 2026-04-21 11:15 | -23.50626 | 172.94530 | 40000 ft | 476 kts | 228° |
| 2026-04-21 11:16 | -23.55963 | 172.90255 | 39999 ft | 476 kts | 228° |
| 2026-04-21 11:16 | -23.61302 | 172.85975 | 40007 ft | 476 kts | 228° |
| 2026-04-21 11:17 | -23.66608 | 172.81716 | 39998 ft | 476 kts | 228° |
| 2026-04-21 11:17 | -23.71952 | 172.77423 | 39998 ft | 477 kts | 228° |
| 2026-04-21 11:18 | -23.77288 | 172.73132 | 39996 ft | 476 kts | 228° |
| 2026-04-21 11:18 | -23.82628 | 172.68834 | 39996 ft | 476 kts | 229° |
| 2026-04-21 11:19 | -23.87966 | 172.64532 | 39993 ft | 476 kts | 229° |
| 2026-04-21 11:19 | -23.93304 | 172.60227 | 39994 ft | 476 kts | 229° |
| 2026-04-21 11:20 | -23.98632 | 172.55924 | 39994 ft | 476 kts | 229° |
| 2026-04-21 11:20 | -24.03924 | 172.51645 | 39993 ft | 476 kts | 229° |
| 2026-04-21 11:21 | -24.09265 | 172.47323 | 39993 ft | 476 kts | 229° |
| 2026-04-21 11:21 | -24.14590 | 172.43009 | 39993 ft | 476 kts | 229° |
| 2026-04-21 11:22 | -24.19891 | 172.38710 | 40033 ft | 476 kts | 229° |
| 2026-04-21 11:22 | -24.25222 | 172.34380 | 39990 ft | 478 kts | 229° |
| 2026-04-21 11:23 | -24.30571 | 172.30033 | 39993 ft | 478 kts | 229° |
| 2026-04-21 11:23 | -24.35926 | 172.25678 | 39993 ft | 478 kts | 229° |
| 2026-04-21 11:24 | -24.41264 | 172.21331 | 39994 ft | 478 kts | 229° |
| 2026-04-21 11:24 | -24.46574 | 172.17002 | 39991 ft | 478 kts | 229° |
| 2026-04-21 11:25 | -24.51916 | 172.12641 | 39991 ft | 478 kts | 229° |
| 2026-04-21 11:25 | -24.57254 | 172.08279 | 39988 ft | 478 kts | 229° |
| 2026-04-21 11:26 | -24.62593 | 172.03912 | 39988 ft | 478 kts | 229° |
| 2026-04-21 11:26 | -24.67928 | 171.99544 | 39988 ft | 477 kts | 229° |
| 2026-04-21 11:27 | -24.73259 | 171.95175 | 39988 ft | 477 kts | 229° |
| 2026-04-21 11:27 | -24.78557 | 171.90827 | 39988 ft | 477 kts | 229° |
| 2026-04-21 11:28 | -24.82983 | 171.87193 | 39989 ft | 475 kts | 230° |
| 2026-04-21 11:28 | -24.88276 | 171.82843 | 39988 ft | 474 kts | 230° |
| 2026-04-21 11:29 | -24.93565 | 171.78487 | 39988 ft | 474 kts | 230° |
| 2026-04-21 11:29 | -24.98812 | 171.74160 | 39988 ft | 474 kts | 230° |
| 2026-04-21 11:30 | -25.04031 | 171.69738 | 39988 ft | 470 kts | 232° |
| 2026-04-21 11:30 | -25.09059 | 171.65167 | 40016 ft | 468 kts | 233° |
| 2026-04-21 11:31 | -25.14066 | 171.60599 | 39989 ft | 464 kts | 233° |
| 2026-04-21 11:31 | -25.19062 | 171.56083 | 39988 ft | 464 kts | 233° |
| 2026-04-21 11:32 | -25.24032 | 171.51606 | 39988 ft | 464 kts | 233° |
| 2026-04-21 11:32 | -25.29038 | 171.47098 | 39985 ft | 464 kts | 233° |
| 2026-04-21 11:33 | -25.34040 | 171.42590 | 39986 ft | 464 kts | 233° |
| 2026-04-21 11:33 | -25.39017 | 171.38099 | 40042 ft | 464 kts | 233° |
| 2026-04-21 11:34 | -25.44028 | 171.33572 | 39983 ft | 464 kts | 233° |
| 2026-04-21 11:34 | -25.49029 | 171.29048 | 39983 ft | 464 kts | 233° |
| 2026-04-21 11:35 | -25.54029 | 171.24521 | 39986 ft | 464 kts | 233° |
| 2026-04-21 11:35 | -25.58995 | 171.20019 | 39980 ft | 464 kts | 233° |
| 2026-04-21 11:36 | -25.63993 | 171.15484 | 39985 ft | 464 kts | 233° |
| 2026-04-21 11:36 | -25.68985 | 171.10949 | 40012 ft | 464 kts | 233° |
| 2026-04-21 11:37 | -25.73951 | 171.06431 | 39981 ft | 464 kts | 233° |
| 2026-04-21 11:37 | -25.78950 | 171.01880 | 39980 ft | 464 kts | 233° |
| 2026-04-21 11:38 | -25.83940 | 170.97331 | 39980 ft | 464 kts | 233° |
| 2026-04-21 11:38 | -25.88924 | 170.92783 | 39978 ft | 464 kts | 233° |
| 2026-04-21 11:39 | -25.93882 | 170.88254 | 39984 ft | 464 kts | 234° |
| 2026-04-21 11:39 | -25.98871 | 170.83689 | 40007 ft | 464 kts | 234° |
| 2026-04-21 11:40 | -26.03870 | 170.79111 | 39979 ft | 465 kts | 234° |
| 2026-04-21 11:40 | -26.08838 | 170.74557 | 39977 ft | 465 kts | 234° |
| 2026-04-21 11:41 | -26.13833 | 170.69974 | 39977 ft | 465 kts | 234° |
| 2026-04-21 11:41 | -26.18829 | 170.65383 | 39976 ft | 465 kts | 234° |
| 2026-04-21 11:42 | -26.23784 | 170.60825 | 39976 ft | 465 kts | 234° |
| 2026-04-21 11:42 | -26.28769 | 170.56234 | 39979 ft | 465 kts | 234° |
| 2026-04-21 11:43 | -26.33771 | 170.51620 | 39980 ft | 466 kts | 234° |
| 2026-04-21 11:43 | -26.38742 | 170.47030 | 39974 ft | 466 kts | 234° |
| 2026-04-21 11:44 | -26.43742 | 170.42411 | 39974 ft | 466 kts | 234° |
| 2026-04-21 11:44 | -26.48738 | 170.37789 | 39974 ft | 466 kts | 234° |
| 2026-04-21 11:45 | -26.53740 | 170.33156 | 39974 ft | 466 kts | 234° |
| 2026-04-21 11:45 | -26.58702 | 170.28553 | 39973 ft | 467 kts | 234° |
| 2026-04-21 11:46 | -26.63699 | 170.23913 | 39974 ft | 467 kts | 234° |
| 2026-04-21 11:46 | -26.68695 | 170.19270 | 39975 ft | 467 kts | 234° |
| 2026-04-21 11:47 | -26.73684 | 170.14627 | 39980 ft | 467 kts | 234° |
| 2026-04-21 11:47 | -26.78680 | 170.09973 | 39965 ft | 466 kts | 234° |
| 2026-04-21 11:48 | -26.83670 | 170.05317 | 39998 ft | 467 kts | 234° |
| 2026-04-21 11:48 | -26.88631 | 170.00682 | 39971 ft | 467 kts | 234° |
| 2026-04-21 11:49 | -26.93623 | 169.96014 | 39970 ft | 467 kts | 234° |
| 2026-04-21 11:49 | -26.98587 | 169.91368 | 39972 ft | 467 kts | 234° |
| 2026-04-21 11:50 | -27.03581 | 169.86688 | 39967 ft | 467 kts | 234° |
| 2026-04-21 11:50 | -27.08573 | 169.82003 | 39966 ft | 467 kts | 234° |
| 2026-04-21 11:51 | -27.13563 | 169.77312 | 39974 ft | 468 kts | 233° |
| 2026-04-21 11:51 | -27.18527 | 169.72640 | 39960 ft | 469 kts | 233° |
| 2026-04-21 11:52 | -27.23542 | 169.67917 | 39962 ft | 470 kts | 233° |
| 2026-04-21 11:52 | -27.28558 | 169.63190 | 39960 ft | 470 kts | 233° |
| 2026-04-21 11:53 | -27.33569 | 169.58460 | 39957 ft | 470 kts | 233° |
| 2026-04-21 11:53 | -27.38537 | 169.53763 | 39960 ft | 470 kts | 233° |
| 2026-04-21 11:54 | -27.43552 | 169.49016 | 39956 ft | 470 kts | 233° |
| 2026-04-21 11:54 | -27.48558 | 169.44273 | 39954 ft | 469 kts | 233° |
| 2026-04-21 11:55 | -27.53525 | 169.39561 | 39957 ft | 469 kts | 232° |
| 2026-04-21 11:55 | -27.58529 | 169.34808 | 39955 ft | 469 kts | 232° |
| 2026-04-21 11:56 | -27.63523 | 169.30057 | 39954 ft | 469 kts | 232° |
| 2026-04-21 11:56 | -27.68489 | 169.25326 | 39955 ft | 470 kts | 232° |
| 2026-04-21 11:57 | -27.73493 | 169.20554 | 39952 ft | 470 kts | 232° |
| 2026-04-21 11:57 | -27.78496 | 169.15779 | 39950 ft | 470 kts | 232° |
| 2026-04-21 11:58 | -27.83498 | 169.10998 | 39949 ft | 470 kts | 232° |
| 2026-04-21 11:58 | -27.88461 | 169.06249 | 39946 ft | 470 kts | 232° |
| 2026-04-21 11:59 | -27.93454 | 169.01465 | 39986 ft | 470 kts | 232° |
| 2026-04-21 11:59 | -27.98452 | 168.96669 | 39942 ft | 471 kts | 232° |
| 2026-04-21 12:00 | -28.03448 | 168.91869 | 39943 ft | 470 kts | 232° |
| 2026-04-21 12:00 | -28.08436 | 168.87073 | 39948 ft | 470 kts | 232° |
| 2026-04-21 12:01 | -28.13422 | 168.82270 | 39945 ft | 470 kts | 232° |
| 2026-04-21 12:01 | -28.18376 | 168.77493 | 39937 ft | 470 kts | 232° |
| 2026-04-21 12:02 | -28.25858 | 168.70267 | 39944 ft | 471 kts | 232° |
| 2026-04-21 12:03 | -28.30842 | 168.65444 | 39943 ft | 470 kts | 232° |
| 2026-04-21 12:03 | -28.35820 | 168.60624 | 39938 ft | 470 kts | 232° |
| 2026-04-21 12:04 | -28.40802 | 168.55792 | 39940 ft | 470 kts | 232° |
| 2026-04-21 12:04 | -28.45745 | 168.50992 | 39940 ft | 470 kts | 232° |
| 2026-04-21 12:05 | -28.50722 | 168.46152 | 39939 ft | 470 kts | 232° |
| 2026-04-21 12:05 | -28.55699 | 168.41306 | 39936 ft | 471 kts | 232° |
| 2026-04-21 12:06 | -28.60643 | 168.36487 | 39940 ft | 471 kts | 232° |
| 2026-04-21 12:06 | -28.65618 | 168.31632 | 39947 ft | 471 kts | 231° |
| 2026-04-21 12:07 | -28.70589 | 168.26774 | 39936 ft | 470 kts | 232° |
| 2026-04-21 12:07 | -28.75531 | 168.21937 | 39945 ft | 470 kts | 231° |
| 2026-04-21 12:08 | -28.80509 | 168.17057 | 39932 ft | 471 kts | 231° |
| 2026-04-21 12:08 | -28.85485 | 168.12176 | 39945 ft | 472 kts | 231° |
| 2026-04-21 12:09 | -28.90438 | 168.07310 | 39956 ft | 472 kts | 231° |
| 2026-04-21 12:09 | -28.95416 | 168.02414 | 39963 ft | 471 kts | 231° |
| 2026-04-21 12:10 | -29.00387 | 167.97506 | 40004 ft | 470 kts | 232° |
| 2026-04-21 12:10 | -29.02658 | 167.94877 | 39980 ft | 459 kts | 239° |
| 2026-04-21 12:10 | -29.04544 | 167.91996 | 39964 ft | 448 kts | 246° |
| 2026-04-21 12:10 | -29.06009 | 167.88896 | 39965 ft | 437 kts | 254° |
| 2026-04-21 12:11 | -29.07136 | 167.85740 | 39964 ft | 434 kts | 257° |
| 2026-04-21 12:11 | -29.09203 | 167.79265 | 39938 ft | 433 kts | 258° |
| 2026-04-21 12:12 | -29.11201 | 167.72756 | 39939 ft | 433 kts | 258° |
| 2026-04-21 12:12 | -29.13215 | 167.66244 | 39944 ft | 433 kts | 258° |
| 2026-04-21 12:13 | -29.15228 | 167.59785 | 39939 ft | 433 kts | 258° |
| 2026-04-21 12:13 | -29.17255 | 167.53286 | 39939 ft | 434 kts | 257° |
| 2026-04-21 12:14 | -29.19284 | 167.46776 | 39944 ft | 434 kts | 257° |
| 2026-04-21 12:14 | -29.21296 | 167.40305 | 39944 ft | 434 kts | 257° |
| 2026-04-21 12:15 | -29.23321 | 167.33776 | 39953 ft | 435 kts | 257° |
| 2026-04-21 12:15 | -29.25333 | 167.27268 | 39944 ft | 437 kts | 257° |
| 2026-04-21 12:16 | -29.27366 | 167.20687 | 39949 ft | 438 kts | 257° |
| 2026-04-21 12:16 | -29.29386 | 167.14134 | 39947 ft | 439 kts | 257° |
| 2026-04-21 12:17 | -29.31423 | 167.07516 | 39946 ft | 439 kts | 257° |
| 2026-04-21 12:17 | -29.33451 | 167.00917 | 39947 ft | 439 kts | 257° |
| 2026-04-21 12:18 | -29.35479 | 166.94300 | 39947 ft | 439 kts | 257° |
| 2026-04-21 12:18 | -29.37488 | 166.87731 | 39952 ft | 439 kts | 257° |
| 2026-04-21 12:19 | -29.39509 | 166.81103 | 39953 ft | 442 kts | 256° |
| 2026-04-21 12:19 | -29.41200 | 166.75549 | 39952 ft | 443 kts | 256° |
| 2026-04-21 12:20 | -29.43233 | 166.68866 | 39952 ft | 444 kts | 256° |
| 2026-04-21 12:20 | -29.45268 | 166.62159 | 39961 ft | 445 kts | 255° |
| 2026-04-21 12:21 | -29.47298 | 166.55456 | 39958 ft | 447 kts | 255° |
| 2026-04-21 12:21 | -29.49342 | 166.48698 | 39961 ft | 448 kts | 255° |
| 2026-04-21 12:22 | -29.51382 | 166.41938 | 39962 ft | 448 kts | 255° |
| 2026-04-21 12:22 | -29.53417 | 166.35175 | 39966 ft | 448 kts | 255° |
| 2026-04-21 12:23 | -29.55437 | 166.28450 | 39965 ft | 448 kts | 255° |
| 2026-04-21 12:23 | -29.57462 | 166.21692 | 39964 ft | 448 kts | 255° |
| 2026-04-21 12:24 | -29.59490 | 166.14914 | 39966 ft | 448 kts | 255° |
| 2026-04-21 12:24 | -29.61510 | 166.08149 | 39969 ft | 447 kts | 254° |
| 2026-04-21 12:25 | -29.63516 | 166.01412 | 39975 ft | 447 kts | 254° |
| 2026-04-21 12:25 | -29.65529 | 165.94636 | 39981 ft | 448 kts | 254° |
| 2026-04-21 12:26 | -29.67542 | 165.87847 | 39978 ft | 448 kts | 254° |
| 2026-04-21 12:26 | -29.69554 | 165.81049 | 39975 ft | 449 kts | 254° |
| 2026-04-21 12:27 | -29.71564 | 165.74240 | 39972 ft | 449 kts | 253° |
| 2026-04-21 12:27 | -29.73554 | 165.67489 | 39973 ft | 449 kts | 253° |
| 2026-04-21 12:28 | -29.75559 | 165.60674 | 39979 ft | 449 kts | 253° |
| 2026-04-21 12:28 | -29.77559 | 165.53858 | 39984 ft | 449 kts | 253° |
| 2026-04-21 12:29 | -29.79553 | 165.47048 | 39984 ft | 448 kts | 253° |
| 2026-04-21 12:29 | -29.81530 | 165.40279 | 39989 ft | 448 kts | 253° |
| 2026-04-21 12:30 | -29.83520 | 165.33455 | 39999 ft | 448 kts | 254° |
| 2026-04-21 12:30 | -29.85503 | 165.26639 | 39989 ft | 448 kts | 254° |
| 2026-04-21 12:31 | -29.87470 | 165.19864 | 39990 ft | 448 kts | 254° |
| 2026-04-21 12:31 | -29.89446 | 165.13040 | 39989 ft | 448 kts | 254° |
| 2026-04-21 12:32 | -29.91405 | 165.06265 | 39986 ft | 448 kts | 253° |
| 2026-04-21 12:32 | -29.93380 | 164.99415 | 39991 ft | 449 kts | 253° |
| 2026-04-21 12:33 | -29.95347 | 164.92581 | 39990 ft | 449 kts | 253° |
| 2026-04-21 12:33 | -29.97298 | 164.85788 | 39997 ft | 449 kts | 253° |
| 2026-04-21 12:34 | -29.99259 | 164.78943 | 39990 ft | 449 kts | 253° |
| 2026-04-21 12:34 | -30.01217 | 164.72094 | 40008 ft | 449 kts | 253° |
| 2026-04-21 12:35 | -30.03172 | 164.65240 | 40001 ft | 448 kts | 253° |
| 2026-04-21 12:35 | -30.05105 | 164.58449 | 40010 ft | 448 kts | 253° |
| 2026-04-21 12:36 | -30.07054 | 164.51586 | 40009 ft | 449 kts | 253° |
| 2026-04-21 12:36 | -30.08988 | 164.44763 | 40010 ft | 450 kts | 253° |
| 2026-04-21 12:37 | -30.10933 | 164.37886 | 40012 ft | 450 kts | 253° |
| 2026-04-21 12:37 | -30.12871 | 164.31016 | 40010 ft | 449 kts | 253° |
| 2026-04-21 12:38 | -30.14803 | 164.24154 | 40007 ft | 449 kts | 253° |
| 2026-04-21 12:38 | -30.16718 | 164.17336 | 40016 ft | 448 kts | 253° |
| 2026-04-21 12:39 | -30.18643 | 164.10467 | 40016 ft | 448 kts | 253° |
| 2026-04-21 12:39 | -30.20565 | 164.03591 | 40019 ft | 448 kts | 253° |
| 2026-04-21 12:40 | -30.22468 | 163.96770 | 40020 ft | 448 kts | 253° |
| 2026-04-21 12:40 | -30.24373 | 163.89924 | 40032 ft | 447 kts | 252° |
| 2026-04-21 12:41 | -30.26281 | 163.83056 | 40025 ft | 448 kts | 252° |
| 2026-04-21 12:41 | -30.28186 | 163.76179 | 40027 ft | 449 kts | 252° |
| 2026-04-21 12:42 | -30.30076 | 163.69345 | 40027 ft | 449 kts | 252° |
| 2026-04-21 12:42 | -30.31975 | 163.62460 | 40021 ft | 448 kts | 252° |
| 2026-04-21 12:43 | -30.33867 | 163.55585 | 40032 ft | 447 kts | 252° |
| 2026-04-21 12:43 | -30.35753 | 163.48718 | 40033 ft | 447 kts | 252° |
| 2026-04-21 12:44 | -30.37635 | 163.41848 | 40032 ft | 447 kts | 252° |
| 2026-04-21 12:44 | -30.39502 | 163.35018 | 40036 ft | 447 kts | 252° |
| 2026-04-21 12:45 | -30.41374 | 163.28150 | 40037 ft | 447 kts | 252° |
| 2026-04-21 12:45 | -30.43244 | 163.21277 | 40045 ft | 447 kts | 252° |
| 2026-04-21 12:46 | -30.45117 | 163.14377 | 40046 ft | 448 kts | 252° |
| 2026-04-21 12:46 | -30.46974 | 163.07521 | 40044 ft | 448 kts | 252° |
| 2026-04-21 12:47 | -30.48836 | 163.00632 | 40047 ft | 448 kts | 252° |
| 2026-04-21 12:47 | -30.50737 | 162.93747 | 40028 ft | 448 kts | 251° |
| 2026-04-21 12:48 | -30.52687 | 162.86884 | 40047 ft | 447 kts | 251° |
| 2026-04-21 12:48 | -30.54614 | 162.80081 | 40041 ft | 447 kts | 251° |
| 2026-04-21 12:49 | -30.56543 | 162.73221 | 40052 ft | 447 kts | 251° |
| 2026-04-21 12:49 | -30.58464 | 162.66354 | 40053 ft | 447 kts | 251° |
| 2026-04-21 12:50 | -30.60378 | 162.59495 | 40042 ft | 447 kts | 251° |
| 2026-04-21 12:50 | -30.62291 | 162.52626 | 40050 ft | 447 kts | 251° |
| 2026-04-21 12:51 | -30.64191 | 162.45791 | 40049 ft | 447 kts | 251° |
| 2026-04-21 12:51 | -30.66097 | 162.38919 | 40052 ft | 447 kts | 251° |
| 2026-04-21 12:52 | -30.68005 | 162.32022 | 40050 ft | 447 kts | 251° |
| 2026-04-21 12:52 | -30.69907 | 162.25131 | 40047 ft | 447 kts | 251° |
| 2026-04-21 12:53 | -30.71801 | 162.18254 | 40055 ft | 447 kts | 251° |
| 2026-04-21 12:53 | -30.73682 | 162.11409 | 40064 ft | 447 kts | 251° |
| 2026-04-21 12:54 | -30.75570 | 162.04523 | 40062 ft | 447 kts | 251° |
| 2026-04-21 12:54 | -30.77454 | 161.97631 | 40061 ft | 447 kts | 251° |
| 2026-04-21 12:55 | -30.79335 | 161.90737 | 40060 ft | 447 kts | 251° |
| 2026-04-21 12:55 | -30.81216 | 161.83829 | 40063 ft | 448 kts | 251° |
| 2026-04-21 12:56 | -30.83082 | 161.76958 | 40066 ft | 448 kts | 251° |
| 2026-04-21 12:56 | -30.84958 | 161.70033 | 40062 ft | 448 kts | 251° |
| 2026-04-21 12:57 | -30.86827 | 161.63119 | 40063 ft | 448 kts | 251° |
| 2026-04-21 12:57 | -30.88685 | 161.56229 | 40050 ft | 448 kts | 251° |
| 2026-04-21 12:58 | -30.90551 | 161.49294 | 40067 ft | 448 kts | 251° |
| 2026-04-21 12:58 | -30.92409 | 161.42371 | 40069 ft | 448 kts | 251° |
| 2026-04-21 12:59 | -30.94263 | 161.35446 | 40069 ft | 448 kts | 251° |
| 2026-04-21 12:59 | -30.96107 | 161.28545 | 40094 ft | 448 kts | 251° |
| 2026-04-21 13:00 | -30.97957 | 161.21601 | 40046 ft | 449 kts | 251° |
| 2026-04-21 13:00 | -30.99807 | 161.14642 | 40078 ft | 449 kts | 251° |
| 2026-04-21 13:01 | -31.01655 | 161.07674 | 40075 ft | 449 kts | 251° |
| 2026-04-21 13:01 | -31.03481 | 161.00772 | 40073 ft | 449 kts | 251° |
| 2026-04-21 13:02 | -31.05319 | 160.93810 | 40074 ft | 449 kts | 251° |
| 2026-04-21 13:02 | -31.08067 | 160.83367 | 40080 ft | 449 kts | 251° |
| 2026-04-21 13:03 | -31.09895 | 160.76398 | 40081 ft | 449 kts | 251° |
| 2026-04-21 13:03 | -31.11710 | 160.69464 | 40083 ft | 449 kts | 251° |
| 2026-04-21 13:04 | -31.13531 | 160.62488 | 40088 ft | 449 kts | 251° |
| 2026-04-21 13:04 | -31.15355 | 160.55487 | 40086 ft | 450 kts | 251° |
| 2026-04-21 13:05 | -31.17162 | 160.48530 | 40084 ft | 450 kts | 251° |
| 2026-04-21 13:05 | -31.18977 | 160.41524 | 40089 ft | 450 kts | 251° |
| 2026-04-21 13:06 | -31.20787 | 160.34523 | 40089 ft | 450 kts | 251° |
| 2026-04-21 13:06 | -31.22584 | 160.27556 | 40097 ft | 450 kts | 251° |
| 2026-04-21 13:07 | -31.24386 | 160.20548 | 40094 ft | 450 kts | 251° |
| 2026-04-21 13:07 | -31.26181 | 160.13553 | 40096 ft | 449 kts | 251° |
| 2026-04-21 13:08 | -31.27961 | 160.06597 | 40099 ft | 448 kts | 251° |
| 2026-04-21 13:08 | -31.29749 | 159.99597 | 40108 ft | 449 kts | 251° |
| 2026-04-21 13:09 | -31.31536 | 159.92582 | 40105 ft | 450 kts | 251° |
| 2026-04-21 13:09 | -31.33309 | 159.85603 | 40087 ft | 450 kts | 251° |
| 2026-04-21 13:10 | -31.35087 | 159.78583 | 40107 ft | 449 kts | 251° |
| 2026-04-21 13:10 | -31.36847 | 159.71621 | 40104 ft | 449 kts | 251° |
| 2026-04-21 13:11 | -31.38618 | 159.64594 | 40110 ft | 449 kts | 251° |
| 2026-04-21 13:11 | -31.40382 | 159.57583 | 40112 ft | 449 kts | 251° |
| 2026-04-21 13:12 | -31.41844 | 159.51753 | 40093 ft | 449 kts | 251° |
| 2026-04-21 13:12 | -31.43883 | 159.43605 | 40113 ft | 448 kts | 251° |
| 2026-04-21 13:13 | -31.45339 | 159.37773 | 40126 ft | 448 kts | 251° |
| 2026-04-21 13:13 | -31.47085 | 159.30766 | 40125 ft | 449 kts | 251° |
| 2026-04-21 13:14 | -31.48831 | 159.23739 | 40132 ft | 449 kts | 251° |
| 2026-04-21 13:14 | -31.50570 | 159.16717 | 40123 ft | 449 kts | 251° |
| 2026-04-21 13:15 | -31.52318 | 159.09696 | 40127 ft | 447 kts | 250° |
| 2026-04-21 13:15 | -31.54719 | 159.03065 | 40130 ft | 444 kts | 242° |
| 2026-04-21 13:16 | -31.57453 | 158.96566 | 40130 ft | 444 kts | 241° |
| 2026-04-21 13:16 | -31.60242 | 158.90087 | 40130 ft | 444 kts | 241° |
| 2026-04-21 13:17 | -31.63021 | 158.83611 | 40124 ft | 444 kts | 241° |
| 2026-04-21 13:17 | -31.65764 | 158.77178 | 40132 ft | 443 kts | 241° |
| 2026-04-21 13:18 | -31.68509 | 158.70718 | 40135 ft | 442 kts | 242° |
| 2026-04-21 13:18 | -31.71253 | 158.64248 | 40146 ft | 443 kts | 242° |
| 2026-04-21 13:19 | -31.73998 | 158.57767 | 40138 ft | 443 kts | 242° |
| 2026-04-21 13:19 | -31.76739 | 158.51281 | 40138 ft | 443 kts | 242° |
| 2026-04-21 13:20 | -31.79473 | 158.44803 | 40153 ft | 443 kts | 242° |
| 2026-04-21 13:20 | -31.82215 | 158.38293 | 40146 ft | 443 kts | 242° |
| 2026-04-21 13:21 | -31.84937 | 158.31820 | 40146 ft | 444 kts | 242° |
| 2026-04-21 13:21 | -31.87676 | 158.25292 | 40146 ft | 444 kts | 242° |
| 2026-04-21 13:22 | -31.90408 | 158.18771 | 40142 ft | 443 kts | 241° |
| 2026-04-21 13:22 | -31.93115 | 158.12297 | 40150 ft | 442 kts | 242° |
| 2026-04-21 13:23 | -31.95825 | 158.05805 | 40152 ft | 442 kts | 242° |
| 2026-04-21 13:23 | -31.98536 | 157.99299 | 40160 ft | 442 kts | 241° |
| 2026-04-21 13:24 | -32.01250 | 157.92774 | 40154 ft | 443 kts | 241° |
| 2026-04-21 13:24 | -32.03960 | 157.86246 | 40133 ft | 443 kts | 241° |
| 2026-04-21 13:25 | -32.06662 | 157.79725 | 40163 ft | 442 kts | 241° |
| 2026-04-21 13:25 | -32.09340 | 157.73251 | 40163 ft | 441 kts | 241° |
| 2026-04-21 13:26 | -32.12031 | 157.66733 | 40163 ft | 441 kts | 241° |
| 2026-04-21 13:26 | -32.14727 | 157.60193 | 40165 ft | 441 kts | 242° |
| 2026-04-21 13:27 | -32.17391 | 157.53715 | 40162 ft | 442 kts | 241° |
| 2026-04-21 13:27 | -32.20070 | 157.47193 | 40174 ft | 441 kts | 241° |
| 2026-04-21 13:28 | -32.22744 | 157.40667 | 40174 ft | 440 kts | 241° |
| 2026-04-21 13:28 | -32.25397 | 157.34184 | 40170 ft | 440 kts | 241° |
| 2026-04-21 13:29 | -32.28062 | 157.27657 | 40175 ft | 440 kts | 241° |
| 2026-04-21 13:29 | -32.30720 | 157.21136 | 40155 ft | 440 kts | 241° |
| 2026-04-21 13:30 | -32.33373 | 157.14615 | 40185 ft | 439 kts | 241° |
| 2026-04-21 13:30 | -32.36019 | 157.08098 | 40181 ft | 439 kts | 241° |
| 2026-04-21 13:31 | -32.38648 | 157.01614 | 40184 ft | 439 kts | 241° |
| 2026-04-21 13:31 | -32.41288 | 156.95090 | 40189 ft | 439 kts | 241° |
| 2026-04-21 13:32 | -32.43926 | 156.88557 | 40170 ft | 439 kts | 241° |
| 2026-04-21 13:32 | -32.46544 | 156.82063 | 40190 ft | 438 kts | 241° |
| 2026-04-21 13:33 | -32.49165 | 156.75549 | 40195 ft | 438 kts | 241° |
| 2026-04-21 13:33 | -32.51789 | 156.69015 | 40200 ft | 438 kts | 241° |
| 2026-04-21 13:34 | -32.54395 | 156.62515 | 40199 ft | 439 kts | 241° |
| 2026-04-21 13:34 | -32.57013 | 156.55970 | 40177 ft | 439 kts | 241° |
| 2026-04-21 13:35 | -32.59626 | 156.49427 | 40206 ft | 438 kts | 241° |
| 2026-04-21 13:35 | -32.62231 | 156.42892 | 40206 ft | 437 kts | 241° |
| 2026-04-21 13:36 | -32.64813 | 156.36402 | 40208 ft | 438 kts | 241° |
| 2026-04-21 13:36 | -32.67410 | 156.29862 | 40213 ft | 438 kts | 241° |
| 2026-04-21 13:37 | -32.70011 | 156.23301 | 40197 ft | 438 kts | 241° |
| 2026-04-21 13:37 | -32.72584 | 156.16795 | 40214 ft | 437 kts | 241° |
| 2026-04-21 13:38 | -32.75168 | 156.10253 | 40216 ft | 437 kts | 242° |
| 2026-04-21 13:38 | -32.77754 | 156.03692 | 40216 ft | 437 kts | 242° |
| 2026-04-21 13:39 | -32.80332 | 155.97137 | 40219 ft | 437 kts | 242° |
| 2026-04-21 13:39 | -32.82889 | 155.90625 | 40222 ft | 437 kts | 241° |
| 2026-04-21 13:40 | -32.85464 | 155.84055 | 40224 ft | 437 kts | 242° |
| 2026-04-21 13:40 | -32.88026 | 155.77504 | 40224 ft | 437 kts | 242° |
| 2026-04-21 13:41 | -32.90570 | 155.70988 | 40227 ft | 437 kts | 242° |
| 2026-04-21 13:41 | -32.93128 | 155.64424 | 40227 ft | 437 kts | 242° |
| 2026-04-21 13:42 | -32.95681 | 155.57857 | 40233 ft | 437 kts | 242° |
| 2026-04-21 13:42 | -32.98233 | 155.51283 | 40234 ft | 437 kts | 242° |
| 2026-04-21 13:43 | -33.00779 | 155.44710 | 40236 ft | 437 kts | 242° |
| 2026-04-21 13:43 | -33.03308 | 155.38169 | 40239 ft | 437 kts | 242° |
| 2026-04-21 13:44 | -33.05856 | 155.31567 | 40239 ft | 437 kts | 242° |
| 2026-04-21 13:44 | -33.08376 | 155.25026 | 40242 ft | 437 kts | 242° |
| 2026-04-21 13:45 | -33.10910 | 155.18434 | 40248 ft | 437 kts | 242° |
| 2026-04-21 13:45 | -33.13446 | 155.11824 | 40245 ft | 437 kts | 242° |
| 2026-04-21 13:46 | -33.15947 | 155.05293 | 40247 ft | 437 kts | 242° |
| 2026-04-21 13:46 | -33.18492 | 154.98662 | 40230 ft | 437 kts | 242° |
| 2026-04-21 13:47 | -33.21032 | 154.92051 | 40251 ft | 437 kts | 242° |
| 2026-04-21 13:47 | -33.23343 | 154.86023 | 40251 ft | 437 kts | 242° |
| 2026-04-21 13:48 | -33.25874 | 154.79404 | 40248 ft | 437 kts | 242° |
| 2026-04-21 13:48 | -33.28399 | 154.72791 | 40254 ft | 437 kts | 242° |
| 2026-04-21 13:49 | -33.30920 | 154.66173 | 40229 ft | 437 kts | 242° |
| 2026-04-21 13:49 | -33.33426 | 154.59582 | 40261 ft | 438 kts | 242° |
| 2026-04-21 13:50 | -33.35944 | 154.52945 | 40260 ft | 438 kts | 242° |
| 2026-04-21 13:50 | -33.38462 | 154.46294 | 40262 ft | 438 kts | 242° |
| 2026-04-21 13:51 | -33.40971 | 154.39657 | 40270 ft | 438 kts | 242° |
| 2026-04-21 13:51 | -33.43465 | 154.33045 | 40262 ft | 438 kts | 242° |
| 2026-04-21 13:52 | -33.45972 | 154.26384 | 40263 ft | 438 kts | 242° |
| 2026-04-21 13:52 | -33.48471 | 154.19733 | 40267 ft | 438 kts | 242° |
| 2026-04-21 13:53 | -33.50971 | 154.13066 | 40270 ft | 438 kts | 242° |
| 2026-04-21 13:53 | -33.53467 | 154.06394 | 40272 ft | 438 kts | 242° |
| 2026-04-21 13:54 | -33.55948 | 153.99750 | 40272 ft | 438 kts | 242° |
| 2026-04-21 13:54 | -33.58443 | 153.93056 | 40275 ft | 438 kts | 242° |
| 2026-04-21 13:55 | -33.60930 | 153.86370 | 40287 ft | 438 kts | 242° |
| 2026-04-21 13:55 | -33.63411 | 153.79685 | 40279 ft | 438 kts | 242° |
| 2026-04-21 13:56 | -33.65879 | 153.73023 | 40261 ft | 438 kts | 242° |
| 2026-04-21 13:56 | -33.68354 | 153.66329 | 40279 ft | 439 kts | 242° |
| 2026-04-21 13:57 | -33.70826 | 153.59626 | 40284 ft | 439 kts | 242° |
| 2026-04-21 13:57 | -33.73299 | 153.52911 | 40284 ft | 439 kts | 243° |
| 2026-04-21 13:58 | -33.75751 | 153.46235 | 40293 ft | 439 kts | 242° |
| 2026-04-21 13:58 | -33.78217 | 153.39510 | 40287 ft | 439 kts | 243° |
| 2026-04-21 13:59 | -33.80681 | 153.32779 | 40290 ft | 439 kts | 243° |
| 2026-04-21 13:59 | -33.82722 | 153.27188 | 40293 ft | 439 kts | 243° |
| 2026-04-21 14:00 | -33.85577 | 153.19355 | 40127 ft | 439 kts | 243° |
| 2026-04-21 14:00 | -33.86798 | 153.15999 | 39521 ft | 438 kts | 243° |
| 2026-04-21 14:00 | -33.87624 | 153.13726 | 39031 ft | 439 kts | 243° |
| 2026-04-21 14:01 | -33.88851 | 153.10352 | 38215 ft | 439 kts | 243° |
| 2026-04-21 14:01 | -33.90053 | 153.07038 | 37544 ft | 437 kts | 243° |
| 2026-04-21 14:01 | -33.91270 | 153.03677 | 36853 ft | 437 kts | 243° |
| 2026-04-21 14:01 | -33.92484 | 153.00326 | 36165 ft | 437 kts | 243° |
| 2026-04-21 14:02 | -33.93700 | 152.96964 | 35441 ft | 437 kts | 243° |
| 2026-04-21 14:02 | -33.94916 | 152.93602 | 34652 ft | 440 kts | 243° |
| 2026-04-21 14:02 | -33.96142 | 152.90209 | 33757 ft | 443 kts | 243° |
| 2026-04-21 14:03 | -33.98609 | 152.83366 | 31970 ft | 447 kts | 243° |
| 2026-04-21 14:03 | -33.99851 | 152.79916 | 31048 ft | 449 kts | 243° |
| 2026-04-21 14:03 | -34.01082 | 152.76490 | 30069 ft | 452 kts | 243° |
| 2026-04-21 14:03 | -34.02338 | 152.72993 | 29025 ft | 454 kts | 243° |
| 2026-04-21 14:04 | -34.03583 | 152.69520 | 28355 ft | 449 kts | 243° |
| 2026-04-21 14:04 | -34.04811 | 152.66082 | 27673 ft | 444 kts | 243° |
| 2026-04-21 14:04 | -34.06030 | 152.62670 | 26989 ft | 440 kts | 243° |
| 2026-04-21 14:04 | -34.07157 | 152.59243 | 26312 ft | 440 kts | 248° |
| 2026-04-21 14:05 | -34.07769 | 152.55659 | 25665 ft | 443 kts | 259° |
| 2026-04-21 14:05 | -34.07737 | 152.51919 | 24976 ft | 448 kts | 270° |
| 2026-04-21 14:05 | -34.07423 | 152.48152 | 24515 ft | 452 kts | 271° |
| 2026-04-21 14:05 | -34.07071 | 152.44354 | 24333 ft | 455 kts | 271° |
| 2026-04-21 14:06 | -34.06714 | 152.40559 | 24314 ft | 456 kts | 271° |
| 2026-04-21 14:06 | -34.06358 | 152.36797 | 24315 ft | 455 kts | 271° |
| 2026-04-21 14:06 | -34.05998 | 152.32998 | 24315 ft | 455 kts | 271° |
| 2026-04-21 14:06 | -34.05637 | 152.29205 | 24315 ft | 455 kts | 271° |
| 2026-04-21 14:07 | -34.05274 | 152.25413 | 24260 ft | 452 kts | 271° |
| 2026-04-21 14:07 | -34.04914 | 152.21672 | 23611 ft | 447 kts | 271° |
| 2026-04-21 14:07 | -34.04556 | 152.17938 | 22708 ft | 447 kts | 272° |
| 2026-04-21 14:07 | -34.04202 | 152.14262 | 21924 ft | 444 kts | 272° |
| 2026-04-21 14:08 | -34.03845 | 152.10576 | 21181 ft | 441 kts | 272° |
| 2026-04-21 14:08 | -34.03491 | 152.06921 | 20459 ft | 436 kts | 272° |
| 2026-04-21 14:08 | -34.03140 | 152.03347 | 19331 ft | 424 kts | 273° |
| 2026-04-21 14:08 | -34.02785 | 151.99809 | 17928 ft | 429 kts | 273° |
| 2026-04-21 14:09 | -34.02425 | 151.96229 | 17118 ft | 428 kts | 274° |
| 2026-04-21 14:09 | -34.02073 | 151.92788 | 16260 ft | 410 kts | 274° |
| 2026-04-21 14:09 | -34.01729 | 151.89403 | 14874 ft | 406 kts | 274° |
| 2026-04-21 14:09 | -34.01388 | 151.86031 | 13469 ft | 403 kts | 274° |
| 2026-04-21 14:10 | -34.01049 | 151.82704 | 12167 ft | 396 kts | 274° |
| 2026-04-21 14:10 | -34.00720 | 151.79491 | 11467 ft | 374 kts | 274° |
| 2026-04-21 14:10 | -34.00410 | 151.76478 | 10944 ft | 351 kts | 274° |
| 2026-04-21 14:10 | -34.00118 | 151.73632 | 10481 ft | 332 kts | 274° |
| 2026-04-21 14:11 | -33.99837 | 151.70907 | 10181 ft | 322 kts | 274° |
| 2026-04-21 14:11 | -33.99569 | 151.68296 | 9933 ft | 312 kts | 274° |
| 2026-04-21 14:11 | -33.99306 | 151.65746 | 9657 ft | 302 kts | 273° |
| 2026-04-21 14:11 | -33.99048 | 151.63267 | 9451 ft | 295 kts | 273° |
| 2026-04-21 14:12 | -33.98797 | 151.60821 | 9230 ft | 291 kts | 273° |
| 2026-04-21 14:12 | -33.98548 | 151.58397 | 9032 ft | 293 kts | 274° |
| 2026-04-21 14:12 | -33.98295 | 151.55960 | 8795 ft | 292 kts | 274° |
| 2026-04-21 14:12 | -33.98044 | 151.53562 | 8568 ft | 292 kts | 274° |
| 2026-04-21 14:13 | -33.97791 | 151.51132 | 8348 ft | 292 kts | 273° |
| 2026-04-21 14:13 | -33.97540 | 151.48713 | 8127 ft | 290 kts | 274° |
| 2026-04-21 14:13 | -33.97285 | 151.46297 | 7908 ft | 291 kts | 273° |
| 2026-04-21 14:13 | -33.97033 | 151.43883 | 7698 ft | 289 kts | 274° |
| 2026-04-21 14:14 | -33.96785 | 151.41498 | 7466 ft | 285 kts | 274° |
| 2026-04-21 14:14 | -33.96532 | 151.39129 | 7255 ft | 285 kts | 273° |
| 2026-04-21 14:14 | -33.96284 | 151.36754 | 7041 ft | 285 kts | 272° |
| 2026-04-21 14:14 | -33.96045 | 151.34384 | 6826 ft | 282 kts | 274° |
| 2026-04-21 14:15 | -33.95804 | 151.32036 | 6607 ft | 280 kts | 274° |
| 2026-04-21 14:15 | -33.95568 | 151.29748 | 6394 ft | 278 kts | 274° |
| 2026-04-21 14:15 | -33.95330 | 151.27439 | 6168 ft | 277 kts | 274° |
| 2026-04-21 14:15 | -33.95092 | 151.25135 | 6026 ft | 276 kts | 274° |
| 2026-04-21 14:16 | -33.94854 | 151.22835 | 5994 ft | 277 kts | 274° |
| 2026-04-21 14:16 | -33.94616 | 151.20527 | 5991 ft | 278 kts | 274° |
| 2026-04-21 14:16 | -33.94376 | 151.18218 | 5993 ft | 277 kts | 274° |
| 2026-04-21 14:16 | -33.94096 | 151.15964 | 5986 ft | 266 kts | 276° |
| 2026-04-21 14:17 | -33.93771 | 151.13771 | 5996 ft | 267 kts | 277° |
| 2026-04-21 14:17 | -33.93441 | 151.11560 | 5994 ft | 267 kts | 277° |
| 2026-04-21 14:17 | -33.93111 | 151.09357 | 5995 ft | 267 kts | 277° |
| 2026-04-21 14:17 | -33.92781 | 151.07161 | 5992 ft | 267 kts | 277° |
| 2026-04-21 14:18 | -33.92430 | 151.04963 | 5990 ft | 268 kts | 281° |
| 2026-04-21 14:18 | -33.91828 | 151.02855 | 5997 ft | 271 kts | 289° |
| 2026-04-21 14:18 | -33.91086 | 151.00765 | 5995 ft | 271 kts | 291° |
| 2026-04-21 14:18 | -33.90018 | 150.98881 | 5996 ft | 276 kts | 316° |
| 2026-04-21 14:19 | -33.88355 | 150.97741 | 5994 ft | 277 kts | 344° |
| 2026-04-21 14:19 | -33.86438 | 150.97483 | 5999 ft | 276 kts | 1° |
| 2026-04-21 14:19 | -33.84510 | 150.97540 | 5996 ft | 277 kts | 3° |
| 2026-04-21 14:19 | -33.82609 | 150.97643 | 5994 ft | 276 kts | 5° |
| 2026-04-21 14:20 | -33.80767 | 150.98188 | 5947 ft | 270 kts | 26° |
| 2026-04-21 14:20 | -33.79094 | 150.99177 | 5541 ft | 268 kts | 31° |
| 2026-04-21 14:20 | -33.77450 | 151.00244 | 5146 ft | 268 kts | 31° |
| 2026-04-21 14:20 | -33.75818 | 151.01311 | 5002 ft | 268 kts | 31° |
| 2026-04-21 14:21 | -33.74182 | 151.02381 | 4993 ft | 268 kts | 31° |
| 2026-04-21 14:21 | -33.72542 | 151.03450 | 4996 ft | 267 kts | 31° |
| 2026-04-21 14:21 | -33.70903 | 151.04517 | 4946 ft | 266 kts | 31° |
| 2026-04-21 14:21 | -33.69281 | 151.05573 | 4724 ft | 263 kts | 32° |
| 2026-04-21 14:22 | -33.67711 | 151.06587 | 4608 ft | 252 kts | 32° |
| 2026-04-21 14:22 | -33.66206 | 151.07554 | 4471 ft | 247 kts | 32° |
| 2026-04-21 14:22 | -33.64780 | 151.08704 | 4338 ft | 241 kts | 51° |
| 2026-04-21 14:22 | -33.64004 | 151.10388 | 4205 ft | 229 kts | 82° |
| 2026-04-21 14:23 | -33.64077 | 151.12223 | 4085 ft | 217 kts | 113° |
| 2026-04-21 14:23 | -33.64946 | 151.13645 | 3944 ft | 212 kts | 145° |
| 2026-04-21 14:23 | -33.66297 | 151.14256 | 3838 ft | 206 kts | 171° |
| 2026-04-21 14:23 | -33.67695 | 151.14199 | 3671 ft | 199 kts | 193° |
| 2026-04-21 14:24 | -33.68970 | 151.13691 | 3563 ft | 188 kts | 197° |
| 2026-04-21 14:24 | -33.70163 | 151.13142 | 3340 ft | 181 kts | 198° |
| 2026-04-21 14:24 | -33.71343 | 151.12722 | 3050 ft | 178 kts | 191° |
| 2026-04-21 14:24 | -33.72580 | 151.12536 | 2989 ft | 179 kts | 182° |
| 2026-04-21 14:25 | -33.73817 | 151.12454 | 2986 ft | 178 kts | 180° |
| 2026-04-21 14:25 | -33.75047 | 151.12580 | 2983 ft | 176 kts | 169° |
| 2026-04-21 14:25 | -33.76250 | 151.12863 | 2995 ft | 176 kts | 167° |
| 2026-04-21 14:25 | -33.77449 | 151.13163 | 2990 ft | 176 kts | 167° |
| 2026-04-21 14:26 | -33.78643 | 151.13470 | 2921 ft | 175 kts | 168° |
| 2026-04-21 14:26 | -33.79838 | 151.13762 | 2699 ft | 175 kts | 168° |
| 2026-04-21 14:26 | -33.81028 | 151.14068 | 2440 ft | 175 kts | 167° |
| 2026-04-21 14:26 | -33.82213 | 151.14378 | 2190 ft | 174 kts | 167° |
| 2026-04-21 14:27 | -33.83383 | 151.14681 | 1961 ft | 167 kts | 167° |
| 2026-04-21 14:27 | -33.84461 | 151.14960 | 1733 ft | 153 kts | 167° |
| 2026-04-21 14:27 | -33.85464 | 151.15220 | 1542 ft | 142 kts | 167° |
| 2026-04-21 14:27 | -33.86408 | 151.15466 | 1356 ft | 135 kts | 168° |
| 2026-04-21 14:28 | -33.87300 | 151.15697 | 1175 ft | 128 kts | 168° |
| 2026-04-21 14:28 | -33.88165 | 151.15923 | 1015 ft | 126 kts | 171° |
| 2026-04-21 14:28 | -33.89034 | 151.16145 | 848 ft | 129 kts | 168° |
| 2026-04-21 14:28 | -33.89900 | 151.16372 | 679 ft | 124 kts | 168° |
| 2026-04-21 14:29 | -33.90722 | 151.16585 | 498 ft | 122 kts | 165° |
| 2026-04-21 14:29 | -33.91556 | 151.16800 | 378 ft | 124 kts | 167° |
| 2026-04-21 14:29 | -33.92403 | 151.17007 | 191 ft | 125 kts | 168° |
| 2026-04-21 14:29 | -33.93263 | 151.17246 | 43 ft | 126 kts | 165° |
| 2026-04-21 14:30 | -33.94032 | 151.17457 | 27 ft | 93 kts | 170° |
| 2026-04-21 14:30 | -33.94521 | 151.17573 | 31 ft | 50 kts | 169° |
| 2026-04-21 14:30 | -33.94720 | 151.17621 | 29 ft | 17 kts | 168° |
| 2026-04-21 14:30 | -33.94843 | 151.17649 | 29 ft | 19 kts | 176° |
| 2026-04-21 14:31 | -33.94981 | 151.17650 | 27 ft | 21 kts | 184° |
| 2026-04-21 14:31 | -33.95092 | 151.17626 | 29 ft | 15 kts | 194° |
| 2026-04-21 14:31 | -33.95147 | 151.17556 | 29 ft | 12 kts | 265° |
| 2026-04-21 14:31 | -33.95130 | 151.17526 | 31 ft | 2 kts | 343° |
| 2026-04-21 14:32 | -33.95115 | 151.17522 | 29 ft | 4 kts | 347° |
| 2026-04-21 14:32 | -33.95077 | 151.17511 | 26 ft | 7 kts | 347° |
| 2026-04-21 14:32 | -33.95016 | 151.17495 | 27 ft | 11 kts | 347° |
| 2026-04-21 14:32 | -33.94924 | 151.17470 | 28 ft | 16 kts | 347° |
| 2026-04-21 14:33 | -33.94816 | 151.17442 | 28 ft | 15 kts | 348° |
| 2026-04-21 14:33 | -33.94711 | 151.17415 | 32 ft | 16 kts | 348° |
| 2026-04-21 14:33 | -33.94600 | 151.17387 | 32 ft | 16 kts | 348° |
| 2026-04-21 14:33 | -33.94478 | 151.17355 | 32 ft | 20 kts | 346° |
| 2026-04-21 14:34 | -33.94372 | 151.17322 | 32 ft | 12 kts | 336° |
| 2026-04-21 14:34 | -33.94350 | 151.17240 | 31 ft | 11 kts | 261° |
| 2026-04-21 14:34 | -33.94372 | 151.17136 | 30 ft | 14 kts | 252° |
| 2026-04-21 14:34 | -33.94405 | 151.17003 | 29 ft | 19 kts | 253° |
| 2026-04-21 14:35 | -33.94343 | 151.16895 | 29 ft | 17 kts | 345° |
| 2026-04-21 14:35 | -33.94225 | 151.16860 | 29 ft | 19 kts | 347° |
| 2026-04-21 14:35 | -33.94105 | 151.16822 | 29 ft | 11 kts | 324° |
| 2026-04-21 14:35 | -33.94076 | 151.16742 | 27 ft | 6 kts | 257° |
| 2026-04-21 14:36 | -33.94095 | 151.16688 | 27 ft | 8 kts | 246° |
| 2026-04-21 14:36 | -33.94115 | 151.16613 | 27 ft | 7 kts | 254° |
| 2026-04-21 14:36 | -33.94113 | 151.16572 | 27 ft | 3 kts | 295° |
| 2026-04-21 14:36 | -33.94091 | 151.16556 | 27 ft | 5 kts | 338° |
| 2026-04-21 14:37 | -33.94060 | 151.16547 | 27 ft | 5 kts | 346° |
| 2026-04-21 14:37 | -33.94047 | 151.16543 | 27 ft | 2 kts | 347° |
| 2026-04-21 14:37 | -33.94031 | 151.16539 | 27 ft | 2 kts | 345° |
| 2026-04-21 14:37 | -33.94027 | 151.16537 | 27 ft | 0 kts | 345° |